sensor_id;sensor_type;location;lat;lon;timestamp;temperature;humidity
52765;DHT22;38650;44.536;18.664;2023-12-20T00:00:52;3.90;99.90
52765;DHT22;38650;44.536;18.664;2023-12-20T00:03:18;3.90;99.90
52765;DHT22;38650;44.536;18.664;2023-12-20T00:05:44;3.90;99.90
52765;DHT22;38650;44.536;18.664;2023-12-20T00:08:09;3.90;99.90
52765;DHT22;38650;44.536;18.664;2023-12-20T00:10:35;3.90;99.90
52765;DHT22;38650;44.536;18.664;2023-12-20T00:13:01;4.00;99.90
52765;DHT22;38650;44.536;18.664;2023-12-20T00:15:26;4.00;99.90
52765;DHT22;38650;44.536;18.664;2023-12-20T00:17:52;3.90;99.90
52765;DHT22;38650;44.536;18.664;2023-12-20T00:20:18;3.90;99.90
52765;DHT22;38650;44.536;18.664;2023-12-20T00:22:44;3.90;99.90
52765;DHT22;38650;44.536;18.664;2023-12-20T00:25:09;3.90;99.90
52765;DHT22;38650;44.536;18.664;2023-12-20T00:27:35;3.90;99.90
52765;DHT22;38650;44.536;18.664;2023-12-20T00:30:01;3.90;99.90
52765;DHT22;38650;44.536;18.664;2023-12-20T00:32:26;3.80;99.90
52765;DHT22;38650;44.536;18.664;2023-12-20T00:34:52;3.80;99.90
52765;DHT22;38650;44.536;18.664;2023-12-20T00:37:18;3.80;99.90
52765;DHT22;38650;44.536;18.664;2023-12-20T00:39:43;3.90;99.90
52765;DHT22;38650;44.536;18.664;2023-12-20T00:42:09;3.90;99.90
52765;DHT22;38650;44.536;18.664;2023-12-20T00:44:35;3.80;99.90
52765;DHT22;38650;44.536;18.664;2023-12-20T00:47:00;3.70;99.90
52765;DHT22;38650;44.536;18.664;2023-12-20T00:49:26;3.70;99.90
52765;DHT22;38650;44.536;18.664;2023-12-20T00:51:52;3.60;99.90
52765;DHT22;38650;44.536;18.664;2023-12-20T00:54:18;3.50;99.90
52765;DHT22;38650;44.536;18.664;2023-12-20T00:56:44;3.60;99.90
52765;DHT22;38650;44.536;18.664;2023-12-20T00:59:09;3.60;99.90
52765;DHT22;38650;44.536;18.664;2023-12-20T01:01:36;3.60;99.90
52765;DHT22;38650;44.536;18.664;2023-12-20T01:04:01;3.60;99.90
52765;DHT22;38650;44.536;18.664;2023-12-20T01:06:27;3.60;99.90
52765;DHT22;38650;44.536;18.664;2023-12-20T01:08:53;3.60;99.90
52765;DHT22;38650;44.536;18.664;2023-12-20T01:11:19;3.60;99.90
52765;DHT22;38650;44.536;18.664;2023-12-20T01:13:45;3.50;99.90
52765;DHT22;38650;44.536;18.664;2023-12-20T01:16:11;3.50;99.90
52765;DHT22;38650;44.536;18.664;2023-12-20T01:18:37;3.50;99.90
52765;DHT22;38650;44.536;18.664;2023-12-20T01:21:04;3.60;99.90
52765;DHT22;38650;44.536;18.664;2023-12-20T01:23:30;3.60;99.90
52765;DHT22;38650;44.536;18.664;2023-12-20T01:25:56;3.50;99.90
52765;DHT22;38650;44.536;18.664;2023-12-20T01:28:22;3.50;99.90
52765;DHT22;38650;44.536;18.664;2023-12-20T01:30:48;3.50;99.90
52765;DHT22;38650;44.536;18.664;2023-12-20T01:33:13;3.50;99.90
52765;DHT22;38650;44.536;18.664;2023-12-20T01:35:39;3.40;99.90
52765;DHT22;38650;44.536;18.664;2023-12-20T01:38:05;3.40;99.90
52765;DHT22;38650;44.536;18.664;2023-12-20T01:40:30;3.40;99.90
52765;DHT22;38650;44.536;18.664;2023-12-20T01:43:12;3.40;99.90
52765;DHT22;38650;44.536;18.664;2023-12-20T01:45:38;3.40;99.90
52765;DHT22;38650;44.536;18.664;2023-12-20T01:48:05;3.40;99.90
52765;DHT22;38650;44.536;18.664;2023-12-20T01:50:32;3.40;99.90
52765;DHT22;38650;44.536;18.664;2023-12-20T01:53:00;3.30;99.90
52765;DHT22;38650;44.536;18.664;2023-12-20T01:55:27;3.20;99.90
52765;DHT22;38650;44.536;18.664;2023-12-20T01:57:55;3.20;99.90
52765;DHT22;38650;44.536;18.664;2023-12-20T02:00:23;3.20;99.90
52765;DHT22;38650;44.536;18.664;2023-12-20T02:02:50;3.20;99.90
52765;DHT22;38650;44.536;18.664;2023-12-20T02:05:18;3.20;99.90
52765;DHT22;38650;44.536;18.664;2023-12-20T02:07:44;3.10;99.90
52765;DHT22;38650;44.536;18.664;2023-12-20T02:10:09;3.10;99.90
52765;DHT22;38650;44.536;18.664;2023-12-20T02:12:35;3.10;99.90
52765;DHT22;38650;44.536;18.664;2023-12-20T02:15:01;3.20;99.90
52765;DHT22;38650;44.536;18.664;2023-12-20T02:17:27;3.20;99.90
52765;DHT22;38650;44.536;18.664;2023-12-20T02:19:53;3.20;99.90
52765;DHT22;38650;44.536;18.664;2023-12-20T02:22:19;3.10;99.90
52765;DHT22;38650;44.536;18.664;2023-12-20T02:24:44;3.10;99.90
52765;DHT22;38650;44.536;18.664;2023-12-20T02:27:10;3.10;99.90
52765;DHT22;38650;44.536;18.664;2023-12-20T02:29:36;3.10;99.90
52765;DHT22;38650;44.536;18.664;2023-12-20T02:32:02;3.10;99.90
52765;DHT22;38650;44.536;18.664;2023-12-20T02:34:28;3.10;99.90
52765;DHT22;38650;44.536;18.664;2023-12-20T02:36:55;3.10;99.90
52765;DHT22;38650;44.536;18.664;2023-12-20T02:39:21;3.10;99.90
52765;DHT22;38650;44.536;18.664;2023-12-20T02:41:48;3.10;99.90
52765;DHT22;38650;44.536;18.664;2023-12-20T02:44:14;3.10;99.90
52765;DHT22;38650;44.536;18.664;2023-12-20T02:46:40;3.00;99.90
52765;DHT22;38650;44.536;18.664;2023-12-20T02:49:06;3.00;99.90
52765;DHT22;38650;44.536;18.664;2023-12-20T02:51:32;3.00;99.90
52765;DHT22;38650;44.536;18.664;2023-12-20T02:53:57;3.00;99.90
52765;DHT22;38650;44.536;18.664;2023-12-20T02:56:23;3.00;99.90
52765;DHT22;38650;44.536;18.664;2023-12-20T02:58:49;3.00;99.90
52765;DHT22;38650;44.536;18.664;2023-12-20T03:01:14;2.80;99.90
52765;DHT22;38650;44.536;18.664;2023-12-20T03:03:40;2.80;99.90
52765;DHT22;38650;44.536;18.664;2023-12-20T03:06:06;2.80;99.90
52765;DHT22;38650;44.536;18.664;2023-12-20T03:08:31;2.80;99.90
52765;DHT22;38650;44.536;18.664;2023-12-20T03:10:59;2.90;99.90
52765;DHT22;38650;44.536;18.664;2023-12-20T03:13:25;2.90;99.90
52765;DHT22;38650;44.536;18.664;2023-12-20T03:15:51;2.90;99.90
52765;DHT22;38650;44.536;18.664;2023-12-20T03:18:16;2.90;99.90
52765;DHT22;38650;44.536;18.664;2023-12-20T03:20:43;2.80;99.90
52765;DHT22;38650;44.536;18.664;2023-12-20T03:23:09;2.80;99.90
52765;DHT22;38650;44.536;18.664;2023-12-20T03:25:35;2.80;99.90
52765;DHT22;38650;44.536;18.664;2023-12-20T03:28:00;2.70;99.90
52765;DHT22;38650;44.536;18.664;2023-12-20T03:30:26;2.70;99.90
52765;DHT22;38650;44.536;18.664;2023-12-20T03:32:52;2.70;99.90
52765;DHT22;38650;44.536;18.664;2023-12-20T03:35:17;2.70;99.90
52765;DHT22;38650;44.536;18.664;2023-12-20T03:37:43;2.70;99.90
52765;DHT22;38650;44.536;18.664;2023-12-20T03:40:09;2.70;99.90
52765;DHT22;38650;44.536;18.664;2023-12-20T03:42:35;2.70;99.90
52765;DHT22;38650;44.536;18.664;2023-12-20T03:45:00;2.70;99.90
52765;DHT22;38650;44.536;18.664;2023-12-20T03:47:26;2.70;99.90
52765;DHT22;38650;44.536;18.664;2023-12-20T03:49:53;2.70;99.90
52765;DHT22;38650;44.536;18.664;2023-12-20T03:52:18;2.60;99.90
52765;DHT22;38650;44.536;18.664;2023-12-20T03:54:44;2.60;99.90
52765;DHT22;38650;44.536;18.664;2023-12-20T03:57:10;2.60;99.90
52765;DHT22;38650;44.536;18.664;2023-12-20T03:59:36;2.60;99.90
52765;DHT22;38650;44.536;18.664;2023-12-20T04:02:02;2.60;99.90
52765;DHT22;38650;44.536;18.664;2023-12-20T04:04:28;2.50;99.90
52765;DHT22;38650;44.536;18.664;2023-12-20T04:06:54;2.50;99.90
52765;DHT22;38650;44.536;18.664;2023-12-20T04:09:20;2.50;99.90
52765;DHT22;38650;44.536;18.664;2023-12-20T04:11:45;2.40;99.90
52765;DHT22;38650;44.536;18.664;2023-12-20T04:14:11;2.40;99.90
52765;DHT22;38650;44.536;18.664;2023-12-20T04:16:36;2.40;99.90
52765;DHT22;38650;44.536;18.664;2023-12-20T04:19:02;2.40;99.90
52765;DHT22;38650;44.536;18.664;2023-12-20T04:21:28;2.50;99.90
52765;DHT22;38650;44.536;18.664;2023-12-20T04:23:54;2.50;99.90
52765;DHT22;38650;44.536;18.664;2023-12-20T04:26:19;2.50;99.90
52765;DHT22;38650;44.536;18.664;2023-12-20T04:28:45;2.50;99.90
52765;DHT22;38650;44.536;18.664;2023-12-20T04:31:11;2.50;99.90
52765;DHT22;38650;44.536;18.664;2023-12-20T04:33:36;2.50;99.90
52765;DHT22;38650;44.536;18.664;2023-12-20T04:36:02;2.50;99.90
52765;DHT22;38650;44.536;18.664;2023-12-20T04:38:28;2.50;99.90
52765;DHT22;38650;44.536;18.664;2023-12-20T04:40:54;2.40;99.90
52765;DHT22;38650;44.536;18.664;2023-12-20T04:43:20;2.40;99.90
52765;DHT22;38650;44.536;18.664;2023-12-20T04:45:45;2.40;99.90
52765;DHT22;38650;44.536;18.664;2023-12-20T04:48:12;2.40;99.90
52765;DHT22;38650;44.536;18.664;2023-12-20T04:50:37;2.40;99.90
52765;DHT22;38650;44.536;18.664;2023-12-20T04:53:03;2.40;99.90
52765;DHT22;38650;44.536;18.664;2023-12-20T04:55:29;2.40;99.90
52765;DHT22;38650;44.536;18.664;2023-12-20T04:57:55;2.30;99.90
52765;DHT22;38650;44.536;18.664;2023-12-20T05:00:21;2.30;99.90
52765;DHT22;38650;44.536;18.664;2023-12-20T05:02:47;2.20;99.90
52765;DHT22;38650;44.536;18.664;2023-12-20T05:05:13;2.20;99.90
52765;DHT22;38650;44.536;18.664;2023-12-20T05:07:40;2.20;99.90
52765;DHT22;38650;44.536;18.664;2023-12-20T05:10:06;2.20;99.90
52765;DHT22;38650;44.536;18.664;2023-12-20T05:12:34;2.30;99.90
52765;DHT22;38650;44.536;18.664;2023-12-20T05:15:00;2.20;99.90
52765;DHT22;38650;44.536;18.664;2023-12-20T05:17:26;2.30;99.90
52765;DHT22;38650;44.536;18.664;2023-12-20T05:19:51;2.30;99.90
52765;DHT22;38650;44.536;18.664;2023-12-20T05:22:18;2.30;99.90
52765;DHT22;38650;44.536;18.664;2023-12-20T05:24:44;2.30;99.90
52765;DHT22;38650;44.536;18.664;2023-12-20T05:27:10;2.30;99.90
52765;DHT22;38650;44.536;18.664;2023-12-20T05:29:36;2.10;99.90
52765;DHT22;38650;44.536;18.664;2023-12-20T05:32:02;2.00;99.90
52765;DHT22;38650;44.536;18.664;2023-12-20T05:34:30;2.00;99.90
52765;DHT22;38650;44.536;18.664;2023-12-20T05:36:57;2.00;99.90
52765;DHT22;38650;44.536;18.664;2023-12-20T05:39:22;2.00;99.90
52765;DHT22;38650;44.536;18.664;2023-12-20T05:41:48;2.10;99.90
52765;DHT22;38650;44.536;18.664;2023-12-20T05:44:14;2.10;99.90
52765;DHT22;38650;44.536;18.664;2023-12-20T05:46:39;2.10;99.90
52765;DHT22;38650;44.536;18.664;2023-12-20T05:49:06;2.10;99.90
52765;DHT22;38650;44.536;18.664;2023-12-20T05:51:31;2.10;99.90
52765;DHT22;38650;44.536;18.664;2023-12-20T05:53:58;2.00;99.90
52765;DHT22;38650;44.536;18.664;2023-12-20T05:56:24;2.00;99.90
52765;DHT22;38650;44.536;18.664;2023-12-20T05:58:49;2.00;99.90
52765;DHT22;38650;44.536;18.664;2023-12-20T06:01:15;2.00;99.90
52765;DHT22;38650;44.536;18.664;2023-12-20T06:03:43;2.00;99.90
52765;DHT22;38650;44.536;18.664;2023-12-20T06:06:09;2.00;99.90
52765;DHT22;38650;44.536;18.664;2023-12-20T06:08:36;1.90;99.90
52765;DHT22;38650;44.536;18.664;2023-12-20T06:11:01;2.00;99.90
52765;DHT22;38650;44.536;18.664;2023-12-20T06:13:27;2.00;99.90
52765;DHT22;38650;44.536;18.664;2023-12-20T06:15:56;2.00;99.90
52765;DHT22;38650;44.536;18.664;2023-12-20T06:18:22;2.00;99.90
52765;DHT22;38650;44.536;18.664;2023-12-20T06:20:48;2.10;99.90
52765;DHT22;38650;44.536;18.664;2023-12-20T06:23:13;2.10;99.90
52765;DHT22;38650;44.536;18.664;2023-12-20T06:25:39;2.10;99.90
52765;DHT22;38650;44.536;18.664;2023-12-20T06:28:05;2.10;99.90
52765;DHT22;38650;44.536;18.664;2023-12-20T06:30:31;2.10;99.90
52765;DHT22;38650;44.536;18.664;2023-12-20T06:32:58;2.10;99.90
52765;DHT22;38650;44.536;18.664;2023-12-20T06:35:24;2.20;99.90
52765;DHT22;38650;44.536;18.664;2023-12-20T06:37:50;2.20;99.90
52765;DHT22;38650;44.536;18.664;2023-12-20T06:40:16;2.20;99.90
52765;DHT22;38650;44.536;18.664;2023-12-20T06:42:42;2.20;99.90
52765;DHT22;38650;44.536;18.664;2023-12-20T06:45:08;2.20;99.90
52765;DHT22;38650;44.536;18.664;2023-12-20T06:47:34;2.10;99.90
52765;DHT22;38650;44.536;18.664;2023-12-20T06:50:00;2.00;99.90
52765;DHT22;38650;44.536;18.664;2023-12-20T06:52:26;2.00;99.90
52765;DHT22;38650;44.536;18.664;2023-12-20T06:54:52;2.00;99.90
52765;DHT22;38650;44.536;18.664;2023-12-20T06:57:17;2.00;99.90
52765;DHT22;38650;44.536;18.664;2023-12-20T06:59:45;2.10;99.90
52765;DHT22;38650;44.536;18.664;2023-12-20T07:02:10;2.10;99.90
52765;DHT22;38650;44.536;18.664;2023-12-20T07:04:40;2.20;99.90
52765;DHT22;38650;44.536;18.664;2023-12-20T07:07:06;2.10;99.90
52765;DHT22;38650;44.536;18.664;2023-12-20T07:09:32;2.20;99.90
52765;DHT22;38650;44.536;18.664;2023-12-20T07:11:58;2.30;99.90
52765;DHT22;38650;44.536;18.664;2023-12-20T07:14:24;2.30;99.90
52765;DHT22;38650;44.536;18.664;2023-12-20T07:16:50;2.30;99.90
52765;DHT22;38650;44.536;18.664;2023-12-20T07:19:16;2.30;99.90
52765;DHT22;38650;44.536;18.664;2023-12-20T07:21:42;2.20;99.90
52765;DHT22;38650;44.536;18.664;2023-12-20T07:24:07;2.20;99.90
52765;DHT22;38650;44.536;18.664;2023-12-20T07:26:34;2.10;99.90
52765;DHT22;38650;44.536;18.664;2023-12-20T07:29:00;2.20;99.90
52765;DHT22;38650;44.536;18.664;2023-12-20T07:31:25;2.20;99.90
52765;DHT22;38650;44.536;18.664;2023-12-20T07:33:51;2.20;99.90
52765;DHT22;38650;44.536;18.664;2023-12-20T07:36:17;2.20;99.90
52765;DHT22;38650;44.536;18.664;2023-12-20T07:38:43;2.10;99.90
52765;DHT22;38650;44.536;18.664;2023-12-20T07:41:13;2.20;99.90
52765;DHT22;38650;44.536;18.664;2023-12-20T07:43:48;2.40;99.90
52765;DHT22;38650;44.536;18.664;2023-12-20T07:46:15;3.00;99.90
52765;DHT22;38650;44.536;18.664;2023-12-20T07:48:41;3.50;99.90
52765;DHT22;38650;44.536;18.664;2023-12-20T07:51:06;4.20;99.90
52765;DHT22;38650;44.536;18.664;2023-12-20T07:53:34;4.70;98.10
52765;DHT22;38650;44.536;18.664;2023-12-20T07:56:00;6.40;92.90
52765;DHT22;38650;44.536;18.664;2023-12-20T07:58:26;8.30;71.30
52765;DHT22;38650;44.536;18.664;2023-12-20T08:00:51;9.60;60.20
52765;DHT22;38650;44.536;18.664;2023-12-20T08:03:17;10.60;54.90
52765;DHT22;38650;44.536;18.664;2023-12-20T08:05:43;11.50;53.60
52765;DHT22;38650;44.536;18.664;2023-12-20T08:08:08;12.70;51.10
52765;DHT22;38650;44.536;18.664;2023-12-20T08:10:34;13.80;47.60
52765;DHT22;38650;44.536;18.664;2023-12-20T08:13:00;14.70;44.50
52765;DHT22;38650;44.536;18.664;2023-12-20T08:15:26;15.00;41.40
52765;DHT22;38650;44.536;18.664;2023-12-20T08:17:52;14.70;41.10
52765;DHT22;38650;44.536;18.664;2023-12-20T08:20:17;14.80;41.30
52765;DHT22;38650;44.536;18.664;2023-12-20T08:22:43;14.90;41.10
52765;DHT22;38650;44.536;18.664;2023-12-20T08:25:09;15.00;41.20
52765;DHT22;38650;44.536;18.664;2023-12-20T08:27:39;15.30;41.50
52765;DHT22;38650;44.536;18.664;2023-12-20T08:30:08;15.90;41.00
52765;DHT22;38650;44.536;18.664;2023-12-20T08:32:34;16.50;40.30
52765;DHT22;38650;44.536;18.664;2023-12-20T08:35:00;17.10;39.80
52765;DHT22;38650;44.536;18.664;2023-12-20T08:37:25;17.40;38.40
52765;DHT22;38650;44.536;18.664;2023-12-20T08:39:51;17.50;37.80
52765;DHT22;38650;44.536;18.664;2023-12-20T08:42:17;17.60;37.40
52765;DHT22;38650;44.536;18.664;2023-12-20T08:44:43;17.20;37.70
52765;DHT22;38650;44.536;18.664;2023-12-20T08:47:08;17.10;38.70
52765;DHT22;38650;44.536;18.664;2023-12-20T08:49:38;17.20;39.30
52765;DHT22;38650;44.536;18.664;2023-12-20T08:52:04;17.30;39.40
52765;DHT22;38650;44.536;18.664;2023-12-20T08:54:30;17.30;38.90
52765;DHT22;38650;44.536;18.664;2023-12-20T08:56:56;16.80;39.30
52765;DHT22;38650;44.536;18.664;2023-12-20T08:59:22;16.20;40.50
52765;DHT22;38650;44.536;18.664;2023-12-20T09:01:48;15.50;41.40
52765;DHT22;38650;44.536;18.664;2023-12-20T09:04:19;14.90;43.30
52765;DHT22;38650;44.536;18.664;2023-12-20T09:06:45;14.80;43.50
52765;DHT22;38650;44.536;18.664;2023-12-20T09:09:11;14.40;43.50
52765;DHT22;38650;44.536;18.664;2023-12-20T09:11:39;14.20;45.90
52765;DHT22;38650;44.536;18.664;2023-12-20T09:14:05;14.30;47.00
52765;DHT22;38650;44.536;18.664;2023-12-20T09:16:30;14.40;46.20
52765;DHT22;38650;44.536;18.664;2023-12-20T09:18:57;14.70;45.80
52765;DHT22;38650;44.536;18.664;2023-12-20T09:21:23;14.90;46.20
52765;DHT22;38650;44.536;18.664;2023-12-20T09:23:49;15.10;45.60
52765;DHT22;38650;44.536;18.664;2023-12-20T09:26:15;15.20;46.20
52765;DHT22;38650;44.536;18.664;2023-12-20T09:28:41;15.30;44.80
52765;DHT22;38650;44.536;18.664;2023-12-20T09:31:06;15.20;43.40
52765;DHT22;38650;44.536;18.664;2023-12-20T09:33:33;14.80;45.60
52765;DHT22;38650;44.536;18.664;2023-12-20T09:35:58;14.60;47.20
52765;DHT22;38650;44.536;18.664;2023-12-20T09:38:24;14.90;45.50
52765;DHT22;38650;44.536;18.664;2023-12-20T09:40:50;15.20;45.30
52765;DHT22;38650;44.536;18.664;2023-12-20T09:43:19;15.40;44.50
52765;DHT22;38650;44.536;18.664;2023-12-20T09:45:47;15.30;44.00
52765;DHT22;38650;44.536;18.664;2023-12-20T09:48:13;15.10;43.90
52765;DHT22;38650;44.536;18.664;2023-12-20T09:50:43;14.90;44.20
52765;DHT22;38650;44.536;18.664;2023-12-20T09:53:14;14.80;44.70
52765;DHT22;38650;44.536;18.664;2023-12-20T09:55:41;14.30;45.20
52765;DHT22;38650;44.536;18.664;2023-12-20T09:58:07;13.80;46.50
52765;DHT22;38650;44.536;18.664;2023-12-20T10:00:37;13.50;47.60
52765;DHT22;38650;44.536;18.664;2023-12-20T10:03:04;13.30;47.90
52765;DHT22;38650;44.536;18.664;2023-12-20T10:05:32;13.00;49.00
52765;DHT22;38650;44.536;18.664;2023-12-20T10:07:59;12.60;50.20
52765;DHT22;38650;44.536;18.664;2023-12-20T10:10:26;12.40;51.00
52765;DHT22;38650;44.536;18.664;2023-12-20T10:13:08;12.30;52.10
52765;DHT22;38650;44.536;18.664;2023-12-20T10:15:34;12.40;53.30
52765;DHT22;38650;44.536;18.664;2023-12-20T10:18:01;12.80;53.60
52765;DHT22;38650;44.536;18.664;2023-12-20T10:20:28;13.40;51.30
52765;DHT22;38650;44.536;18.664;2023-12-20T10:22:55;13.90;50.30
52765;DHT22;38650;44.536;18.664;2023-12-20T10:25:21;14.40;49.50
52765;DHT22;38650;44.536;18.664;2023-12-20T10:27:47;14.70;49.00
52765;DHT22;38650;44.536;18.664;2023-12-20T10:30:14;14.80;46.60
52765;DHT22;38650;44.536;18.664;2023-12-20T10:32:40;15.00;47.00
52765;DHT22;38650;44.536;18.664;2023-12-20T10:35:06;15.30;48.20
52765;DHT22;38650;44.536;18.664;2023-12-20T10:37:38;15.60;45.90
52765;DHT22;38650;44.536;18.664;2023-12-20T10:40:05;15.80;45.20
52765;DHT22;38650;44.536;18.664;2023-12-20T10:42:32;15.80;44.40
52765;DHT22;38650;44.536;18.664;2023-12-20T10:45:00;15.80;45.50
52765;DHT22;38650;44.536;18.664;2023-12-20T10:47:26;15.60;45.20
52765;DHT22;38650;44.536;18.664;2023-12-20T10:49:55;15.60;45.80
52765;DHT22;38650;44.536;18.664;2023-12-20T10:52:23;15.30;46.80
52765;DHT22;38650;44.536;18.664;2023-12-20T10:54:49;14.90;48.10
52765;DHT22;38650;44.536;18.664;2023-12-20T10:57:19;14.30;50.00
52765;DHT22;38650;44.536;18.664;2023-12-20T10:59:51;14.20;51.00
52765;DHT22;38650;44.536;18.664;2023-12-20T11:02:19;14.00;50.00
52765;DHT22;38650;44.536;18.664;2023-12-20T11:04:55;14.00;51.00
52765;DHT22;38650;44.536;18.664;2023-12-20T11:07:29;14.20;52.00
52765;DHT22;38650;44.536;18.664;2023-12-20T11:09:59;14.40;50.40
52765;DHT22;38650;44.536;18.664;2023-12-20T11:12:42;14.30;50.10
52765;DHT22;38650;44.536;18.664;2023-12-20T11:15:11;13.90;50.90
52765;DHT22;38650;44.536;18.664;2023-12-20T11:17:39;13.70;52.20
52765;DHT22;38650;44.536;18.664;2023-12-20T11:20:07;13.70;53.20
52765;DHT22;38650;44.536;18.664;2023-12-20T11:22:34;13.80;53.10
52765;DHT22;38650;44.536;18.664;2023-12-20T11:25:09;14.20;53.90
52765;DHT22;38650;44.536;18.664;2023-12-20T11:27:37;14.50;52.10
52765;DHT22;38650;44.536;18.664;2023-12-20T11:30:09;14.80;52.70
52765;DHT22;38650;44.536;18.664;2023-12-20T11:32:36;15.30;52.10
52765;DHT22;38650;44.536;18.664;2023-12-20T11:35:22;15.70;51.60
52765;DHT22;38650;44.536;18.664;2023-12-20T11:37:52;16.30;50.10
52765;DHT22;38650;44.536;18.664;2023-12-20T11:40:18;16.60;47.90
52765;DHT22;38650;44.536;18.664;2023-12-20T11:42:45;17.00;48.50
52765;DHT22;38650;44.536;18.664;2023-12-20T11:45:14;17.10;44.20
52765;DHT22;38650;44.536;18.664;2023-12-20T11:47:46;16.60;43.80
52765;DHT22;38650;44.536;18.664;2023-12-20T11:50:12;16.10;44.70
52765;DHT22;38650;44.536;18.664;2023-12-20T11:52:37;16.40;47.50
52765;DHT22;38650;44.536;18.664;2023-12-20T11:55:03;17.00;47.80
52765;DHT22;38650;44.536;18.664;2023-12-20T11:57:32;17.20;45.00
52765;DHT22;38650;44.536;18.664;2023-12-20T11:59:58;16.70;47.50
52765;DHT22;38650;44.536;18.664;2023-12-20T12:02:24;16.20;47.30
52765;DHT22;38650;44.536;18.664;2023-12-20T12:04:50;16.20;49.30
52765;DHT22;38650;44.536;18.664;2023-12-20T12:07:16;16.50;45.30
52765;DHT22;38650;44.536;18.664;2023-12-20T12:09:43;16.60;44.70
52765;DHT22;38650;44.536;18.664;2023-12-20T12:12:09;16.80;44.00
52765;DHT22;38650;44.536;18.664;2023-12-20T12:14:35;16.90;43.90
52765;DHT22;38650;44.536;18.664;2023-12-20T12:17:03;16.80;43.00
52765;DHT22;38650;44.536;18.664;2023-12-20T12:19:29;16.80;44.00
52765;DHT22;38650;44.536;18.664;2023-12-20T12:22:08;16.90;45.10
52765;DHT22;38650;44.536;18.664;2023-12-20T12:24:36;17.00;43.90
52765;DHT22;38650;44.536;18.664;2023-12-20T12:27:03;17.10;43.40
52765;DHT22;38650;44.536;18.664;2023-12-20T12:29:29;17.20;43.10
52765;DHT22;38650;44.536;18.664;2023-12-20T12:31:55;17.50;42.80
52765;DHT22;38650;44.536;18.664;2023-12-20T12:34:21;17.80;42.40
52765;DHT22;38650;44.536;18.664;2023-12-20T12:36:48;18.00;42.20
52765;DHT22;38650;44.536;18.664;2023-12-20T12:39:17;18.00;43.00
52765;DHT22;38650;44.536;18.664;2023-12-20T12:41:43;17.40;43.90
52765;DHT22;38650;44.536;18.664;2023-12-20T12:44:09;16.60;46.30
52765;DHT22;38650;44.536;18.664;2023-12-20T12:46:35;16.00;47.70
52765;DHT22;38650;44.536;18.664;2023-12-20T12:49:01;15.80;49.30
52765;DHT22;38650;44.536;18.664;2023-12-20T12:51:26;16.00;47.60
52765;DHT22;38650;44.536;18.664;2023-12-20T12:53:53;16.30;48.70
52765;DHT22;38650;44.536;18.664;2023-12-20T12:56:18;16.60;45.70
52765;DHT22;38650;44.536;18.664;2023-12-20T12:58:45;16.50;46.50
52765;DHT22;38650;44.536;18.664;2023-12-20T13:01:11;16.50;48.30
52765;DHT22;38650;44.536;18.664;2023-12-20T13:03:37;16.70;46.00
52765;DHT22;38650;44.536;18.664;2023-12-20T13:06:03;16.50;45.70
52765;DHT22;38650;44.536;18.664;2023-12-20T13:08:30;16.20;44.80
52765;DHT22;38650;44.536;18.664;2023-12-20T13:10:56;16.00;46.60
52765;DHT22;38650;44.536;18.664;2023-12-20T13:13:23;15.80;45.70
52765;DHT22;38650;44.536;18.664;2023-12-20T13:15:49;15.80;45.60
52765;DHT22;38650;44.536;18.664;2023-12-20T13:18:18;16.00;45.50
52765;DHT22;38650;44.536;18.664;2023-12-20T13:20:44;16.20;45.20
52765;DHT22;38650;44.536;18.664;2023-12-20T13:23:10;15.60;47.50
52765;DHT22;38650;44.536;18.664;2023-12-20T13:25:36;14.90;49.60
52765;DHT22;38650;44.536;18.664;2023-12-20T13:28:01;14.50;51.90
52765;DHT22;38650;44.536;18.664;2023-12-20T13:30:29;14.30;52.20
52765;DHT22;38650;44.536;18.664;2023-12-20T13:32:55;14.40;51.50
52765;DHT22;38650;44.536;18.664;2023-12-20T13:35:21;14.30;51.80
52765;DHT22;38650;44.536;18.664;2023-12-20T13:37:47;14.40;51.40
52765;DHT22;38650;44.536;18.664;2023-12-20T13:40:12;14.70;50.00
52765;DHT22;38650;44.536;18.664;2023-12-20T13:42:39;14.40;51.00
52765;DHT22;38650;44.536;18.664;2023-12-20T13:45:05;13.90;52.40
52765;DHT22;38650;44.536;18.664;2023-12-20T13:47:32;13.60;53.80
52765;DHT22;38650;44.536;18.664;2023-12-20T13:49:58;13.30;55.30
52765;DHT22;38650;44.536;18.664;2023-12-20T13:52:24;13.20;56.10
52765;DHT22;38650;44.536;18.664;2023-12-20T13:54:49;13.10;56.60
52765;DHT22;38650;44.536;18.664;2023-12-20T13:57:15;13.10;56.40
52765;DHT22;38650;44.536;18.664;2023-12-20T13:59:41;13.40;56.10
52765;DHT22;38650;44.536;18.664;2023-12-20T14:02:07;13.80;54.90
52765;DHT22;38650;44.536;18.664;2023-12-20T14:04:32;14.20;53.10
52765;DHT22;38650;44.536;18.664;2023-12-20T14:06:58;14.40;51.60
52765;DHT22;38650;44.536;18.664;2023-12-20T14:09:24;14.70;49.30
52765;DHT22;38650;44.536;18.664;2023-12-20T14:11:50;14.90;46.20
52765;DHT22;38650;44.536;18.664;2023-12-20T14:14:16;15.00;45.80
52765;DHT22;38650;44.536;18.664;2023-12-20T14:16:41;15.20;44.60
52765;DHT22;38650;44.536;18.664;2023-12-20T14:19:11;15.40;42.60
52765;DHT22;38650;44.536;18.664;2023-12-20T14:21:36;15.30;41.60
52765;DHT22;38650;44.536;18.664;2023-12-20T14:24:02;15.10;42.00
52765;DHT22;38650;44.536;18.664;2023-12-20T14:26:30;15.10;42.00
52765;DHT22;38650;44.536;18.664;2023-12-20T14:28:55;14.90;42.20
52765;DHT22;38650;44.536;18.664;2023-12-20T14:31:21;14.90;42.70
52765;DHT22;38650;44.536;18.664;2023-12-20T14:33:49;14.80;42.90
52765;DHT22;38650;44.536;18.664;2023-12-20T14:36:16;14.70;43.70
52765;DHT22;38650;44.536;18.664;2023-12-20T14:38:43;14.70;44.50
52765;DHT22;38650;44.536;18.664;2023-12-20T14:41:09;14.70;44.70
52765;DHT22;38650;44.536;18.664;2023-12-20T14:43:35;14.60;44.90
52765;DHT22;38650;44.536;18.664;2023-12-20T14:46:00;14.40;44.50
52765;DHT22;38650;44.536;18.664;2023-12-20T14:48:26;14.40;44.70
52765;DHT22;38650;44.536;18.664;2023-12-20T14:50:55;14.40;44.60
52765;DHT22;38650;44.536;18.664;2023-12-20T14:53:20;14.40;44.30
52765;DHT22;38650;44.536;18.664;2023-12-20T14:55:46;14.30;44.00
52765;DHT22;38650;44.536;18.664;2023-12-20T14:58:12;14.30;43.90
52765;DHT22;38650;44.536;18.664;2023-12-20T15:00:40;14.30;43.80
52765;DHT22;38650;44.536;18.664;2023-12-20T15:03:05;14.20;44.30
52765;DHT22;38650;44.536;18.664;2023-12-20T15:05:32;14.10;44.80
52765;DHT22;38650;44.536;18.664;2023-12-20T15:07:58;14.10;44.70
52765;DHT22;38650;44.536;18.664;2023-12-20T15:10:23;14.00;44.50
52765;DHT22;38650;44.536;18.664;2023-12-20T15:12:49;13.90;44.80
52765;DHT22;38650;44.536;18.664;2023-12-20T15:15:15;13.80;45.10
52765;DHT22;38650;44.536;18.664;2023-12-20T15:17:41;13.80;45.50
52765;DHT22;38650;44.536;18.664;2023-12-20T15:20:07;13.70;45.20